KLGC/LGC METAR and TAF weather

Enter ICAO airport designator
Station Type Date Time Source
KLGC METAR 2020/10/20 17:55 UTC NOAA

KLGC 201755Z AUTO 11004KT 10SM SCT034 25/15 A3018 RMK AO2 T02540154 10257 20123


Station Type Date Time Source
KLGC Decoded METAR 2020/10/20 17:55 UTC NOAA

La Grange, Callaway Airport, GA, United States (KLGC) 33-00-32N 085-04-21W
Oct 20, 2020 - 01:55 PM EDT / 2020.10.20 1755 UTC
Wind: from the ESE (110 degrees) at 5 MPH (4 KT):0
Visibility: 10 mile(s):0
Sky conditions: partly cloudy
Temperature: 77.7 F (25.4 C)
Dew Point: 59.7 F (15.4 C)
Relative Humidity: 53%
Pressure (altimeter): 30.18 in. Hg (1022 hPa)
ob: KLGC 201755Z AUTO 11004KT 10SM SCT034 25/15 A3018 RMK AO2 T02540154 10257 20123
cycle: 18

Station Type Date Time Source
KLGC TAF UTC NOAA

Error!

Example: see airport list